»·PEaware :: AA2008 KMCO-KPHL

AA2008 :: KMCO-KPHL

FLIGHT INFORMATION

Flight Status: Arrived
Operator: Unknown
More flights by this operator :: More flights under this callsign
Pilot: Drew Leevy (13237)
Aircraft: BOEING 757-200
(B752)
More flights by this aircraft type
Origin: KMCO Orlando Intl
United States
Destination: KPHL Philadelphia Intl
United States
More flights between these airports :: More routes between these airports
Route: MCOY1 SAV J55 CHS J121 SWL JIIMS2
File this flight plan on PilotEdge
Remarks: Sample flight plan
Altitude:
(Current/Filed)
37,000ft
Speed:
(Current/Filed)
115kts
Departed: 07-Jun-17 02:34 PM
Arrived: 07-Jun-17 06:32 PM
Distance/Time
Traveled:
749nm/3:58
Distance/Time
To Go:
Arrived

Flight Plot

Page will automatically refresh every two minutes.

Flight plan parsing failed; only flown route is shown


Map Options




Map Legend


Flown Route
Filed Route
Departure Airport
Arrival Airport
Navaid (VOR, NDB)
Fix

Horizontal Profiles

Position Reports

Time Latitude Longitude Heading Altitude Ground
Speed
07-Jun-17 14:29 28.429349 -81.314985 303 107ft 12kts
07-Jun-17 14:30 28.430324 -81.318941 300 107ft 14kts
07-Jun-17 14:31 28.434073 -81.319978 358 107ft 18kts
07-Jun-17 14:32 28.439335 -81.320034 359 107ft 19kts
07-Jun-17 14:33 28.444681 -81.320095 359 107ft 18kts
07-Jun-17 14:34 28.448243 -81.321294 268 108ft 13kts
07-Jun-17 14:35 28.447040 -81.322288 180 107ft 39kts
07-Jun-17 14:36 28.404035 -81.322679 181 1708ft 224kts
07-Jun-17 14:37 28.362716 -81.368388 261 5250ft 270kts
07-Jun-17 14:38 28.398156 -81.435067 347 8812ft 291kts
07-Jun-17 14:39 28.484334 -81.425608 1 11164ft 355kts
07-Jun-17 14:40 28.585868 -81.413525 1 14407ft 380kts
07-Jun-17 14:41 28.691752 -81.401245 1 17548ft 399kts
07-Jun-17 14:42 28.807954 -81.388375 1 18808ft 459kts
07-Jun-17 14:43 28.933827 -81.366992 7 22169ft 461kts
07-Jun-17 14:44 29.057926 -81.337031 7 25122ft 460kts
07-Jun-17 14:45 29.182495 -81.308120 359 27573ft 457kts
07-Jun-17 14:46 29.307857 -81.300296 355 29736ft 456kts
07-Jun-17 14:47 29.440088 -81.295367 356 30068ft 502kts
07-Jun-17 14:48 29.582456 -81.289677 355 31530ft 514kts
07-Jun-17 14:49 29.723800 -81.283986 355 33525ft 511kts
07-Jun-17 14:50 29.864514 -81.279910 354 35529ft 504kts
07-Jun-17 14:51 30.003596 -81.274711 356 36769ft 502kts
07-Jun-17 14:52 30.140977 -81.268629 355 36770ft 500kts
07-Jun-17 14:53 30.279313 -81.265531 354 36745ft 500kts
07-Jun-17 14:54 30.417424 -81.261513 355 36747ft 501kts
07-Jun-17 14:55 30.556268 -81.255186 355 36748ft 501kts
07-Jun-17 14:56 30.694961 -81.250002 354 36750ft 500kts
07-Jun-17 14:57 30.833066 -81.245300 354 36763ft 500kts
07-Jun-17 14:58 30.972118 -81.240608 354 36778ft 500kts
07-Jun-17 14:59 31.106864 -81.236055 354 36778ft 500kts
07-Jun-17 15:00 31.244632 -81.231382 354 36772ft 500kts
07-Jun-17 15:01 31.383461 -81.226663 354 36774ft 500kts
07-Jun-17 15:02 31.521508 -81.221958 354 36775ft 500kts
07-Jun-17 15:03 31.660112 -81.217219 354 36776ft 500kts
07-Jun-17 15:04 31.798522 -81.213022 353 36778ft 500kts
07-Jun-17 15:05 31.937560 -81.208967 354 36779ft 501kts
07-Jun-17 15:06 32.075975 -81.199814 6 36837ft 511kts
07-Jun-17 15:07 32.200577 -81.120854 42 36836ft 535kts
07-Jun-17 15:08 32.291550 -80.981010 51 36857ft 537kts
07-Jun-17 15:09 32.381696 -80.840864 51 36860ft 538kts
07-Jun-17 15:10 32.472211 -80.700766 51 36862ft 538kts
07-Jun-17 15:11 32.562502 -80.560616 51 36850ft 538kts
07-Jun-17 15:12 32.652904 -80.419771 50 36895ft 538kts
07-Jun-17 15:13 32.742723 -80.279327 51 36858ft 538kts
07-Jun-17 15:14 32.817428 -80.162102 51 36859ft 539kts
07-Jun-17 15:15 32.930948 -80.006672 35 36871ft 534kts
07-Jun-17 15:16 33.045051 -79.896048 35 36890ft 534kts
07-Jun-17 15:17 33.139374 -79.804637 35 36884ft 534kts
07-Jun-17 15:18 33.273220 -79.674551 35 36888ft 534kts
07-Jun-17 15:19 33.368861 -79.581275 35 36890ft 534kts
07-Jun-17 15:20 33.500814 -79.452014 33 36887ft 512kts
07-Jun-17 15:21 33.592201 -79.362367 33 36918ft 512kts
07-Jun-17 15:22 33.718925 -79.237522 33 36913ft 513kts
07-Jun-17 15:23 33.810508 -79.146966 33 36911ft 513kts
07-Jun-17 15:24 33.920487 -79.037891 33 36913ft 514kts
07-Jun-17 15:25 34.029404 -78.928468 34 36904ft 515kts
07-Jun-17 15:26 34.137946 -78.820846 31 36916ft 512kts
07-Jun-17 15:27 34.248907 -78.712926 33 36917ft 514kts
07-Jun-17 15:28 34.358811 -78.602742 33 36918ft 515kts
07-Jun-17 15:29 34.468415 -78.492138 33 36867ft 516kts
07-Jun-17 15:30 34.578358 -78.380746 33 36868ft 516kts
07-Jun-17 15:31 34.685962 -78.271342 34 36936ft 517kts
07-Jun-17 15:32 34.794555 -78.158990 34 36944ft 515kts
07-Jun-17 15:33 34.903590 -78.045566 34 36940ft 517kts
07-Jun-17 15:34 35.013002 -77.932805 34 36942ft 517kts
07-Jun-17 15:35 35.120707 -77.821676 34 36942ft 518kts
07-Jun-17 15:36 35.230154 -77.708377 34 36970ft 518kts
07-Jun-17 15:37 35.339629 -77.594635 34 36973ft 518kts
07-Jun-17 15:38 35.452926 -77.489430 27 37002ft 513kts
07-Jun-17 15:39 35.569069 -77.388809 28 37004ft 515kts
07-Jun-17 15:40 35.684685 -77.287372 29 36990ft 515kts
07-Jun-17 15:41 35.800573 -77.185216 29 36992ft 516kts
07-Jun-17 15:42 35.916236 -77.082881 29 37024ft 516kts
07-Jun-17 15:43 36.031994 -76.980068 29 37023ft 517kts
07-Jun-17 15:44 36.148107 -76.879571 28 37022ft 517kts
07-Jun-17 15:45 36.263734 -76.776830 29 37024ft 517kts
07-Jun-17 15:46 36.380096 -76.672410 29 37026ft 518kts
07-Jun-17 15:47 36.496104 -76.567842 29 37027ft 519kts
07-Jun-17 15:48 36.612349 -76.462647 29 37030ft 519kts
07-Jun-17 15:49 36.727638 -76.355410 29 37032ft 520kts
07-Jun-17 15:50 36.843581 -76.248514 29 37041ft 521kts
07-Jun-17 15:51 36.967501 -76.164813 15 37007ft 508kts
07-Jun-17 15:52 37.094356 -76.097164 15 37021ft 507kts
07-Jun-17 15:53 37.196159 -76.042933 15 37019ft 507kts
07-Jun-17 15:54 37.325345 -75.973933 15 37047ft 507kts
07-Jun-17 15:55 37.455014 -75.904420 15 37049ft 508kts
07-Jun-17 15:56 37.581771 -75.824898 23 37054ft 518kts
07-Jun-17 15:57 37.617580 -75.797983 23 37051ft 518kts
07-Jun-17 15:58 37.617580 -75.797983 23 37051ft 518kts
07-Jun-17 15:59 37.617580 -75.797983 23 37051ft 518kts
07-Jun-17 16:00 37.617580 -75.797983 23 37051ft 518kts
07-Jun-17 16:01 37.617580 -75.797983 23 37051ft 518kts
07-Jun-17 16:02 37.617580 -75.797983 23 37051ft 518kts
07-Jun-17 16:03 37.617580 -75.797983 23 37051ft 518kts
07-Jun-17 16:04 37.617580 -75.797983 23 37051ft 518kts
07-Jun-17 16:05 37.617580 -75.797983 23 37051ft 518kts
07-Jun-17 16:06 37.617580 -75.797983 23 37051ft 518kts
07-Jun-17 16:07 37.617580 -75.797983 23 37051ft 518kts
07-Jun-17 16:08 37.617580 -75.797983 23 37051ft 518kts
07-Jun-17 16:09 37.617580 -75.797983 23 37051ft 518kts
07-Jun-17 16:10 37.617580 -75.797983 23 37051ft 518kts
07-Jun-17 16:11 37.617580 -75.797983 23 37051ft 518kts
07-Jun-17 16:12 37.617580 -75.797983 23 37051ft 518kts
07-Jun-17 16:13 37.617580 -75.797983 23 37051ft 518kts
07-Jun-17 16:14 37.617580 -75.797983 23 37051ft 518kts
07-Jun-17 16:15 37.617580 -75.797983 23 37051ft 518kts
07-Jun-17 16:16 37.617580 -75.797983 23 37051ft 518kts
07-Jun-17 16:17 37.617580 -75.797983 23 37051ft 518kts
07-Jun-17 16:18 37.617580 -75.797983 23 37051ft 518kts
07-Jun-17 16:19 37.617580 -75.797983 23 37051ft 518kts
07-Jun-17 16:20 37.617580 -75.797983 23 37051ft 518kts
07-Jun-17 16:21 37.617580 -75.797983 23 37051ft 518kts
07-Jun-17 16:22 37.617580 -75.797983 23 37051ft 518kts
07-Jun-17 16:23 37.617580 -75.797983 23 37051ft 518kts
07-Jun-17 16:24 37.617580 -75.797983 23 37051ft 518kts
07-Jun-17 16:25 37.617580 -75.797983 23 37051ft 518kts
07-Jun-17 16:26 37.617580 -75.797983 23 37051ft 518kts
07-Jun-17 16:27 37.617580 -75.797983 23 37051ft 518kts
07-Jun-17 16:28 37.617580 -75.797983 23 37051ft 518kts
07-Jun-17 16:29 37.617580 -75.797983 23 37051ft 518kts
07-Jun-17 16:30 37.617580 -75.797983 23 37051ft 518kts
07-Jun-17 16:31 37.617580 -75.797983 23 37051ft 518kts
07-Jun-17 16:32 37.617580 -75.797983 23 37051ft 518kts
07-Jun-17 16:33 37.617580 -75.797983 23 37051ft 518kts
07-Jun-17 16:34 37.617580 -75.797983 23 37051ft 518kts
07-Jun-17 16:35 37.617580 -75.797983 23 37051ft 518kts
07-Jun-17 16:36 37.617580 -75.797983 23 37051ft 518kts
07-Jun-17 16:37 37.617580 -75.797983 23 37051ft 518kts
07-Jun-17 16:38 37.617580 -75.797983 23 37051ft 518kts
07-Jun-17 16:39 37.617580 -75.797983 23 37051ft 518kts
07-Jun-17 16:40 37.617580 -75.797983 23 37051ft 518kts
07-Jun-17 16:41 37.617580 -75.797983 23 37051ft 518kts
07-Jun-17 16:42 37.617580 -75.797983 23 37051ft 518kts
07-Jun-17 16:43 37.617580 -75.797983 23 37051ft 518kts
07-Jun-17 16:44 37.617580 -75.797983 23 37051ft 518kts
07-Jun-17 16:45 37.617580 -75.797983 23 37051ft 518kts
07-Jun-17 16:46 37.617580 -75.797983 23 37051ft 518kts
07-Jun-17 16:47 37.617580 -75.797983 23 37051ft 518kts
07-Jun-17 16:48 37.617580 -75.797983 23 37051ft 518kts
07-Jun-17 16:49 37.617580 -75.797983 23 37051ft 518kts
07-Jun-17 16:50 37.617580 -75.797983 23 37051ft 518kts
07-Jun-17 16:51 37.617580 -75.797983 23 37051ft 518kts
07-Jun-17 16:52 37.617580 -75.797983 23 37051ft 518kts
07-Jun-17 16:53 37.617580 -75.797983 23 37051ft 518kts
07-Jun-17 16:54 37.617580 -75.797983 23 37051ft 518kts
07-Jun-17 16:55 37.617580 -75.797983 23 37051ft 518kts
07-Jun-17 16:56 37.617580 -75.797983 23 37051ft 518kts
07-Jun-17 16:57 37.617580 -75.797983 23 37051ft 518kts
07-Jun-17 16:58 37.617580 -75.797983 23 37051ft 518kts
07-Jun-17 16:59 37.617580 -75.797983 23 37051ft 518kts
07-Jun-17 17:00 37.617580 -75.797983 23 37051ft 518kts
07-Jun-17 17:01 37.617580 -75.797983 23 37051ft 518kts
07-Jun-17 17:02 37.617580 -75.797983 23 37051ft 518kts
07-Jun-17 17:03 37.617580 -75.797983 23 37051ft 518kts
07-Jun-17 17:04 37.617580 -75.797983 23 37051ft 518kts
07-Jun-17 17:05 37.617580 -75.797983 23 37051ft 518kts
07-Jun-17 17:06 37.617580 -75.797983 23 37051ft 518kts
07-Jun-17 17:07 37.617580 -75.797983 23 37051ft 518kts
07-Jun-17 17:08 37.617580 -75.797983 23 37051ft 518kts
07-Jun-17 17:09 37.617580 -75.797983 23 37051ft 518kts
07-Jun-17 17:10 37.617580 -75.797983 23 37051ft 518kts
07-Jun-17 17:11 37.617580 -75.797983 23 37051ft 518kts
07-Jun-17 17:12 37.617580 -75.797983 23 37051ft 518kts
07-Jun-17 17:13 37.617580 -75.797983 23 37051ft 518kts
07-Jun-17 17:14 37.617580 -75.797983 23 37051ft 518kts
07-Jun-17 17:15 37.617580 -75.797983 23 37051ft 518kts
07-Jun-17 17:16 37.617580 -75.797983 23 37051ft 518kts
07-Jun-17 17:17 37.617580 -75.797983 23 37051ft 518kts
07-Jun-17 17:18 37.617580 -75.797983 23 37051ft 518kts
07-Jun-17 17:19 37.617580 -75.797983 23 37051ft 518kts
07-Jun-17 17:20 37.617580 -75.797983 23 37051ft 518kts
07-Jun-17 17:21 37.617580 -75.797983 23 37051ft 518kts
07-Jun-17 17:22 37.617580 -75.797983 23 37051ft 518kts
07-Jun-17 17:23 37.617580 -75.797983 23 37051ft 518kts
07-Jun-17 17:24 37.617580 -75.797983 23 37051ft 518kts
07-Jun-17 17:25 37.617580 -75.797983 23 37051ft 518kts
07-Jun-17 17:26 37.617580 -75.797983 23 37051ft 518kts
07-Jun-17 17:27 37.617580 -75.797983 23 37051ft 518kts
07-Jun-17 17:28 37.617580 -75.797983 23 37051ft 518kts
07-Jun-17 17:29 37.617580 -75.797983 23 37051ft 518kts
07-Jun-17 17:30 37.617580 -75.797983 23 37051ft 518kts
07-Jun-17 17:31 37.617580 -75.797983 23 37051ft 518kts
07-Jun-17 17:32 37.617580 -75.797983 23 37051ft 518kts
07-Jun-17 17:33 37.617580 -75.797983 23 37051ft 518kts
07-Jun-17 17:34 37.617580 -75.797983 23 37051ft 518kts
07-Jun-17 17:35 37.617580 -75.797983 23 37051ft 518kts
07-Jun-17 17:36 37.617580 -75.797983 23 37051ft 518kts
07-Jun-17 17:37 37.617580 -75.797983 23 37051ft 518kts
07-Jun-17 17:38 37.617580 -75.797983 23 37051ft 518kts
07-Jun-17 17:39 37.617580 -75.797983 23 37051ft 518kts
07-Jun-17 17:40 37.617580 -75.797983 23 37051ft 518kts
07-Jun-17 17:41 37.617580 -75.797983 23 37051ft 518kts
07-Jun-17 17:42 37.617580 -75.797983 23 37051ft 518kts
07-Jun-17 17:43 37.617580 -75.797983 23 37051ft 518kts
07-Jun-17 17:44 37.617580 -75.797983 23 37051ft 518kts
07-Jun-17 17:45 37.617580 -75.797983 23 37051ft 518kts
07-Jun-17 17:46 37.617580 -75.797983 23 37051ft 518kts
07-Jun-17 17:47 37.617580 -75.797983 23 37051ft 518kts
07-Jun-17 17:48 37.617580 -75.797983 23 37051ft 518kts
07-Jun-17 17:49 37.617580 -75.797983 23 37051ft 518kts
07-Jun-17 17:50 37.617580 -75.797983 23 37051ft 518kts
07-Jun-17 17:51 37.617580 -75.797983 23 37051ft 518kts
07-Jun-17 17:52 37.617580 -75.797983 23 37051ft 518kts
07-Jun-17 17:53 37.617580 -75.797983 23 37051ft 518kts
07-Jun-17 17:54 37.617580 -75.797983 23 37051ft 518kts
07-Jun-17 17:55 37.617580 -75.797983 23 37051ft 518kts
07-Jun-17 17:56 37.628000 -75.790155 23 37057ft 518kts
07-Jun-17 17:57 37.750585 -75.697972 23 37080ft 508kts
07-Jun-17 17:58 37.871870 -75.606697 23 37088ft 509kts
07-Jun-17 17:59 37.993147 -75.514830 23 37090ft 509kts
07-Jun-17 18:00 38.114811 -75.427556 16 37096ft 502kts
07-Jun-17 18:01 38.122599 -75.423010 16 37094ft 503kts
07-Jun-17 18:02 38.122599 -75.423010 16 37094ft 503kts
07-Jun-17 18:03 38.122599 -75.423010 16 37094ft 503kts
07-Jun-17 18:04 38.168956 -75.394964 17 37089ft 504kts
07-Jun-17 18:05 38.294115 -75.316728 18 37074ft 505kts
07-Jun-17 18:06 38.419614 -75.237221 18 37082ft 507kts
07-Jun-17 18:07 38.544764 -75.157519 18 37079ft 505kts
07-Jun-17 18:08 38.668894 -75.079337 15 36468ft 496kts
07-Jun-17 18:09 38.794161 -75.002902 18 35498ft 505kts
07-Jun-17 18:10 38.919931 -74.922250 18 34518ft 511kts
07-Jun-17 18:11 39.048887 -74.845200 6 31852ft 502kts
07-Jun-17 18:12 39.145830 -74.837426 340 30016ft 459kts
07-Jun-17 18:13 39.250909 -74.869634 336 28326ft 435kts
07-Jun-17 18:14 39.366511 -74.911032 339 25895ft 431kts
07-Jun-17 18:15 39.475521 -74.963305 314 23756ft 403kts
07-Jun-17 18:16 39.534040 -75.074320 286 22253ft 360kts
07-Jun-17 18:17 39.553300 -75.198935 278 20056ft 355kts
07-Jun-17 18:18 39.591343 -75.311835 325 17672ft 352kts
07-Jun-17 18:19 39.679918 -75.361454 324 15413ft 353kts
07-Jun-17 18:20 39.716603 -75.469662 258 14023ft 348kts
07-Jun-17 18:21 39.700465 -75.568059 271 13740ft 316kts
07-Jun-17 18:22 39.766665 -75.638482 354 12626ft 286kts
07-Jun-17 18:23 39.825201 -75.651821 351 11808ft 274kts
07-Jun-17 18:24 39.886617 -75.665907 4 10386ft 268kts
07-Jun-17 18:25 39.911307 -75.589337 138 9374ft 233kts
07-Jun-17 18:26 39.850795 -75.573454 169 7228ft 225kts
07-Jun-17 18:27 39.808125 -75.547668 110 5244ft 202kts
07-Jun-17 18:28 39.818648 -75.482831 73 3668ft 155kts
07-Jun-17 18:29 39.829809 -75.429894 74 2051ft 139kts
07-Jun-17 18:30 39.837295 -75.392907 73 1869ft 134kts
07-Jun-17 18:31 39.843442 -75.362390 76 1429ft 136kts
07-Jun-17 18:32 39.852609 -75.315968 76 739ft 134kts
07-Jun-17 18:33 39.860463 -75.276805 76 116ft 134kts
07-Jun-17 18:34 39.866471 -75.251456 52 48ft 27kts
07-Jun-17 18:35 39.870039 -75.247782 334 48ft 19kts
07-Jun-17 18:36 39.872931 -75.247763 34 48ft 0kts
07-Jun-17 18:37 39.872931 -75.247763 34 48ft 0kts

Navigation Log

Ident Type
Flight plan parsing failed, navigation log unavailable